sensor_id;sensor_type;location;lat;lon;timestamp;P1;durP1;ratioP1;P2;durP2;ratioP2
71648;SDS011;70112;45.624;11.760;2023-05-17T00:00:18;5.90;;;4.00;;
71648;SDS011;70112;45.624;11.760;2023-05-17T00:02:43;4.20;;;3.80;;
71648;SDS011;70112;45.624;11.760;2023-05-17T00:05:09;7.50;;;3.60;;
71648;SDS011;70112;45.624;11.760;2023-05-17T00:07:36;5.00;;;4.00;;
71648;SDS011;70112;45.624;11.760;2023-05-17T00:10:02;4.00;;;3.40;;
71648;SDS011;70112;45.624;11.760;2023-05-17T00:12:28;4.10;;;3.20;;
71648;SDS011;70112;45.624;11.760;2023-05-17T00:14:54;4.10;;;3.20;;
71648;SDS011;70112;45.624;11.760;2023-05-17T00:17:20;4.40;;;3.00;;
71648;SDS011;70112;45.624;11.760;2023-05-17T00:19:45;3.80;;;3.30;;
71648;SDS011;70112;45.624;11.760;2023-05-17T00:22:14;3.40;;;3.10;;
71648;SDS011;70112;45.624;11.760;2023-05-17T00:24:40;3.40;;;2.60;;
71648;SDS011;70112;45.624;11.760;2023-05-17T00:27:05;3.40;;;3.10;;
71648;SDS011;70112;45.624;11.760;2023-05-17T00:29:32;3.30;;;3.00;;
71648;SDS011;70112;45.624;11.760;2023-05-17T00:31:57;3.70;;;3.10;;
71648;SDS011;70112;45.624;11.760;2023-05-17T00:34:23;4.30;;;3.20;;
71648;SDS011;70112;45.624;11.760;2023-05-17T00:36:48;3.70;;;3.00;;
71648;SDS011;70112;45.624;11.760;2023-05-17T00:39:14;5.80;;;3.00;;
71648;SDS011;70112;45.624;11.760;2023-05-17T00:41:43;3.60;;;2.90;;
71648;SDS011;70112;45.624;11.760;2023-05-17T00:44:09;4.00;;;2.90;;
71648;SDS011;70112;45.624;11.760;2023-05-17T00:46:34;9.50;;;3.00;;
71648;SDS011;70112;45.624;11.760;2023-05-17T00:49:00;2.80;;;2.50;;
71648;SDS011;70112;45.624;11.760;2023-05-17T00:51:26;3.70;;;2.50;;
71648;SDS011;70112;45.624;11.760;2023-05-17T00:53:53;3.40;;;2.50;;
71648;SDS011;70112;45.624;11.760;2023-05-17T00:56:22;4.30;;;2.50;;
71648;SDS011;70112;45.624;11.760;2023-05-17T00:58:48;3.40;;;2.50;;
71648;SDS011;70112;45.624;11.760;2023-05-17T01:01:14;5.80;;;2.50;;
71648;SDS011;70112;45.624;11.760;2023-05-17T01:03:40;6.30;;;2.50;;
71648;SDS011;70112;45.624;11.760;2023-05-17T01:06:06;7.40;;;2.80;;
71648;SDS011;70112;45.624;11.760;2023-05-17T01:08:32;3.30;;;2.70;;
71648;SDS011;70112;45.624;11.760;2023-05-17T01:19:16;3.30;;;2.80;;
71648;SDS011;70112;45.624;11.760;2023-05-17T01:22:14;5.40;;;2.80;;
71648;SDS011;70112;45.624;11.760;2023-05-17T01:25:03;5.60;;;3.10;;
71648;SDS011;70112;45.624;11.760;2023-05-17T01:27:30;6.40;;;2.70;;
71648;SDS011;70112;45.624;11.760;2023-05-17T01:29:58;3.60;;;2.60;;
71648;SDS011;70112;45.624;11.760;2023-05-17T01:32:25;2.80;;;2.60;;
71648;SDS011;70112;45.624;11.760;2023-05-17T01:34:50;4.30;;;2.90;;
71648;SDS011;70112;45.624;11.760;2023-05-17T01:37:16;3.00;;;2.70;;
71648;SDS011;70112;45.624;11.760;2023-05-17T01:39:42;3.80;;;3.00;;
71648;SDS011;70112;45.624;11.760;2023-05-17T01:42:20;4.90;;;2.80;;
71648;SDS011;70112;45.624;11.760;2023-05-17T01:50:05;4.90;;;2.90;;
71648;SDS011;70112;45.624;11.760;2023-05-17T01:52:37;5.50;;;3.30;;
71648;SDS011;70112;45.624;11.760;2023-05-17T01:55:44;3.50;;;2.90;;
71648;SDS011;70112;45.624;11.760;2023-05-17T01:58:14;4.90;;;3.10;;
71648;SDS011;70112;45.624;11.760;2023-05-17T02:00:42;6.60;;;3.10;;
71648;SDS011;70112;45.624;11.760;2023-05-17T02:03:18;3.30;;;3.00;;
71648;SDS011;70112;45.624;11.760;2023-05-17T02:05:46;4.60;;;3.20;;
71648;SDS011;70112;45.624;11.760;2023-05-17T02:08:12;5.00;;;2.80;;
71648;SDS011;70112;45.624;11.760;2023-05-17T02:10:38;5.00;;;3.10;;
71648;SDS011;70112;45.624;11.760;2023-05-17T02:13:05;3.80;;;3.30;;
71648;SDS011;70112;45.624;11.760;2023-05-17T02:15:31;5.40;;;3.30;;
71648;SDS011;70112;45.624;11.760;2023-05-17T02:17:57;7.00;;;3.20;;
71648;SDS011;70112;45.624;11.760;2023-05-17T02:20:22;4.40;;;2.90;;
71648;SDS011;70112;45.624;11.760;2023-05-17T02:23:01;3.50;;;3.20;;
71648;SDS011;70112;45.624;11.760;2023-05-17T02:25:35;4.50;;;3.30;;
71648;SDS011;70112;45.624;11.760;2023-05-17T02:28:01;7.90;;;3.50;;
71648;SDS011;70112;45.624;11.760;2023-05-17T02:30:30;3.50;;;3.20;;
71648;SDS011;70112;45.624;11.760;2023-05-17T02:32:56;4.20;;;3.20;;
71648;SDS011;70112;45.624;11.760;2023-05-17T02:35:25;4.00;;;3.50;;
71648;SDS011;70112;45.624;11.760;2023-05-17T02:37:50;4.40;;;3.00;;
71648;SDS011;70112;45.624;11.760;2023-05-17T02:40:27;6.20;;;3.00;;
71648;SDS011;70112;45.624;11.760;2023-05-17T02:42:55;6.60;;;3.20;;
71648;SDS011;70112;45.624;11.760;2023-05-17T02:45:20;6.20;;;3.00;;
71648;SDS011;70112;45.624;11.760;2023-05-17T02:47:46;5.90;;;3.40;;
71648;SDS011;70112;45.624;11.760;2023-05-17T02:50:12;3.70;;;3.30;;
71648;SDS011;70112;45.624;11.760;2023-05-17T02:52:58;4.10;;;3.20;;
71648;SDS011;70112;45.624;11.760;2023-05-17T02:55:24;3.70;;;3.30;;
71648;SDS011;70112;45.624;11.760;2023-05-17T02:57:49;3.90;;;3.30;;
71648;SDS011;70112;45.624;11.760;2023-05-17T03:00:16;4.50;;;2.80;;
71648;SDS011;70112;45.624;11.760;2023-05-17T03:02:42;8.00;;;3.30;;
71648;SDS011;70112;45.624;11.760;2023-05-17T03:08:00;5.80;;;3.10;;
71648;SDS011;70112;45.624;11.760;2023-05-17T03:10:26;3.80;;;3.00;;
71648;SDS011;70112;45.624;11.760;2023-05-17T03:12:55;5.20;;;3.10;;
71648;SDS011;70112;45.624;11.760;2023-05-17T03:15:23;3.40;;;2.70;;
71648;SDS011;70112;45.624;11.760;2023-05-17T03:17:51;4.80;;;2.80;;
71648;SDS011;70112;45.624;11.760;2023-05-17T03:20:20;4.30;;;3.10;;
71648;SDS011;70112;45.624;11.760;2023-05-17T03:22:46;3.90;;;3.00;;
71648;SDS011;70112;45.624;11.760;2023-05-17T03:25:12;3.90;;;3.30;;
71648;SDS011;70112;45.624;11.760;2023-05-17T03:27:41;3.60;;;3.30;;
71648;SDS011;70112;45.624;11.760;2023-05-17T03:30:07;4.90;;;3.10;;
71648;SDS011;70112;45.624;11.760;2023-05-17T03:32:33;6.10;;;3.10;;
71648;SDS011;70112;45.624;11.760;2023-05-17T03:34:59;6.30;;;3.50;;
71648;SDS011;70112;45.624;11.760;2023-05-17T03:37:25;5.70;;;3.50;;
71648;SDS011;70112;45.624;11.760;2023-05-17T03:39:50;3.70;;;3.40;;
71648;SDS011;70112;45.624;11.760;2023-05-17T03:42:19;5.00;;;3.70;;
71648;SDS011;70112;45.624;11.760;2023-05-17T03:44:54;6.10;;;3.40;;
71648;SDS011;70112;45.624;11.760;2023-05-17T03:47:20;4.90;;;3.50;;
71648;SDS011;70112;45.624;11.760;2023-05-17T03:49:48;9.10;;;4.00;;
71648;SDS011;70112;45.624;11.760;2023-05-17T03:52:16;6.10;;;3.80;;
71648;SDS011;70112;45.624;11.760;2023-05-17T03:54:42;9.40;;;3.90;;
71648;SDS011;70112;45.624;11.760;2023-05-17T03:57:25;5.90;;;3.80;;
71648;SDS011;70112;45.624;11.760;2023-05-17T03:59:53;3.80;;;3.40;;
71648;SDS011;70112;45.624;11.760;2023-05-17T04:02:19;9.10;;;4.30;;
71648;SDS011;70112;45.624;11.760;2023-05-17T04:04:49;10.50;;;4.00;;
71648;SDS011;70112;45.624;11.760;2023-05-17T04:07:17;4.70;;;3.80;;
71648;SDS011;70112;45.624;11.760;2023-05-17T04:09:43;5.10;;;3.60;;
71648;SDS011;70112;45.624;11.760;2023-05-17T04:12:12;9.10;;;4.10;;
71648;SDS011;70112;45.624;11.760;2023-05-17T04:14:40;4.90;;;3.80;;
71648;SDS011;70112;45.624;11.760;2023-05-17T04:17:08;6.60;;;4.00;;
71648;SDS011;70112;45.624;11.760;2023-05-17T04:19:34;6.50;;;4.80;;
71648;SDS011;70112;45.624;11.760;2023-05-17T04:22:00;9.00;;;5.10;;
71648;SDS011;70112;45.624;11.760;2023-05-17T04:24:48;8.10;;;5.30;;
71648;SDS011;70112;45.624;11.760;2023-05-17T04:27:23;13.30;;;5.70;;
71648;SDS011;70112;45.624;11.760;2023-05-17T04:29:55;15.70;;;4.90;;
71648;SDS011;70112;45.624;11.760;2023-05-17T04:32:32;13.80;;;4.80;;
71648;SDS011;70112;45.624;11.760;2023-05-17T04:35:20;11.20;;;4.50;;
71648;SDS011;70112;45.624;11.760;2023-05-17T04:37:45;8.30;;;4.80;;
71648;SDS011;70112;45.624;11.760;2023-05-17T04:40:11;12.20;;;5.70;;
71648;SDS011;70112;45.624;11.760;2023-05-17T04:42:42;11.50;;;4.80;;
71648;SDS011;70112;45.624;11.760;2023-05-17T04:45:08;11.50;;;4.60;;
71648;SDS011;70112;45.624;11.760;2023-05-17T04:47:34;6.00;;;5.00;;
71648;SDS011;70112;45.624;11.760;2023-05-17T04:50:03;6.00;;;4.30;;
71648;SDS011;70112;45.624;11.760;2023-05-17T04:52:34;5.50;;;4.20;;
71648;SDS011;70112;45.624;11.760;2023-05-17T04:55:00;7.50;;;4.30;;
71648;SDS011;70112;45.624;11.760;2023-05-17T04:57:29;5.30;;;4.50;;
71648;SDS011;70112;45.624;11.760;2023-05-17T04:59:55;10.70;;;4.50;;
71648;SDS011;70112;45.624;11.760;2023-05-17T05:02:26;7.60;;;4.50;;
71648;SDS011;70112;45.624;11.760;2023-05-17T05:04:51;10.00;;;4.90;;
71648;SDS011;70112;45.624;11.760;2023-05-17T05:07:20;6.10;;;4.90;;
71648;SDS011;70112;45.624;11.760;2023-05-17T05:09:54;5.20;;;4.60;;
71648;SDS011;70112;45.624;11.760;2023-05-17T05:12:23;5.30;;;4.80;;
71648;SDS011;70112;45.624;11.760;2023-05-17T05:14:52;7.10;;;4.50;;
71648;SDS011;70112;45.624;11.760;2023-05-17T05:17:24;6.60;;;4.90;;
71648;SDS011;70112;45.624;11.760;2023-05-17T05:19:53;14.60;;;5.10;;
71648;SDS011;70112;45.624;11.760;2023-05-17T05:22:21;7.80;;;4.60;;
71648;SDS011;70112;45.624;11.760;2023-05-17T05:24:55;4.80;;;4.30;;
71648;SDS011;70112;45.624;11.760;2023-05-17T05:27:21;44.80;;;6.50;;
71648;SDS011;70112;45.624;11.760;2023-05-17T05:29:47;10.50;;;4.80;;
71648;SDS011;70112;45.624;11.760;2023-05-17T05:32:16;7.40;;;4.50;;
71648;SDS011;70112;45.624;11.760;2023-05-17T05:34:44;6.40;;;4.30;;
71648;SDS011;70112;45.624;11.760;2023-05-17T05:39:54;16.60;;;5.80;;
71648;SDS011;70112;45.624;11.760;2023-05-17T05:42:20;6.40;;;4.30;;
71648;SDS011;70112;45.624;11.760;2023-05-17T05:44:46;8.70;;;3.90;;
71648;SDS011;70112;45.624;11.760;2023-05-17T05:47:20;5.90;;;4.10;;
71648;SDS011;70112;45.624;11.760;2023-05-17T05:49:48;5.00;;;3.80;;
71648;SDS011;70112;45.624;11.760;2023-05-17T05:52:16;7.80;;;4.50;;
71648;SDS011;70112;45.624;11.760;2023-05-17T05:54:41;5.80;;;3.80;;
71648;SDS011;70112;45.624;11.760;2023-05-17T05:57:07;6.90;;;4.00;;
71648;SDS011;70112;45.624;11.760;2023-05-17T05:59:33;7.20;;;3.90;;
71648;SDS011;70112;45.624;11.760;2023-05-17T06:01:58;5.30;;;3.50;;
71648;SDS011;70112;45.624;11.760;2023-05-17T06:04:24;5.50;;;4.10;;
71648;SDS011;70112;45.624;11.760;2023-05-17T06:06:50;6.80;;;4.00;;
71648;SDS011;70112;45.624;11.760;2023-05-17T06:09:19;7.00;;;4.20;;
71648;SDS011;70112;45.624;11.760;2023-05-17T06:11:51;10.60;;;5.30;;
71648;SDS011;70112;45.624;11.760;2023-05-17T06:14:31;5.90;;;4.70;;
71648;SDS011;70112;45.624;11.760;2023-05-17T06:16:57;6.00;;;3.90;;
71648;SDS011;70112;45.624;11.760;2023-05-17T06:19:25;5.70;;;3.80;;
71648;SDS011;70112;45.624;11.760;2023-05-17T06:24:37;4.00;;;3.60;;
71648;SDS011;70112;45.624;11.760;2023-05-17T06:27:02;3.60;;;3.10;;
71648;SDS011;70112;45.624;11.760;2023-05-17T06:29:28;5.90;;;4.20;;
71648;SDS011;70112;45.624;11.760;2023-05-17T06:31:54;7.20;;;3.40;;
71648;SDS011;70112;45.624;11.760;2023-05-17T06:34:21;4.60;;;2.80;;
71648;SDS011;70112;45.624;11.760;2023-05-17T06:36:47;3.60;;;2.60;;
71648;SDS011;70112;45.624;11.760;2023-05-17T06:39:18;2.50;;;2.30;;
71648;SDS011;70112;45.624;11.760;2023-05-17T06:41:49;6.60;;;2.40;;
71648;SDS011;70112;45.624;11.760;2023-05-17T06:44:23;2.70;;;2.40;;
71648;SDS011;70112;45.624;11.760;2023-05-17T06:46:49;3.10;;;2.40;;
71648;SDS011;70112;45.624;11.760;2023-05-17T06:49:15;2.70;;;2.10;;
71648;SDS011;70112;45.624;11.760;2023-05-17T06:51:56;18.80;;;3.00;;
71648;SDS011;70112;45.624;11.760;2023-05-17T06:54:27;3.50;;;2.40;;
71648;SDS011;70112;45.624;11.760;2023-05-17T06:57:03;3.50;;;2.30;;
71648;SDS011;70112;45.624;11.760;2023-05-17T06:59:29;2.60;;;2.00;;
71648;SDS011;70112;45.624;11.760;2023-05-17T07:02:06;2.00;;;1.80;;
71648;SDS011;70112;45.624;11.760;2023-05-17T07:04:38;3.60;;;1.90;;
71648;SDS011;70112;45.624;11.760;2023-05-17T07:07:17;6.10;;;2.40;;
71648;SDS011;70112;45.624;11.760;2023-05-17T07:09:43;3.30;;;2.50;;
71648;SDS011;70112;45.624;11.760;2023-05-17T07:12:08;5.10;;;2.60;;
71648;SDS011;70112;45.624;11.760;2023-05-17T07:14:34;2.80;;;2.10;;
71648;SDS011;70112;45.624;11.760;2023-05-17T07:17:00;2.60;;;2.20;;
71648;SDS011;70112;45.624;11.760;2023-05-17T07:19:29;4.40;;;2.60;;
71648;SDS011;70112;45.624;11.760;2023-05-17T07:21:55;5.80;;;3.00;;
71648;SDS011;70112;45.624;11.760;2023-05-17T07:24:20;3.30;;;2.50;;
71648;SDS011;70112;45.624;11.760;2023-05-17T07:26:46;3.30;;;2.70;;
71648;SDS011;70112;45.624;11.760;2023-05-17T07:29:12;3.20;;;2.30;;
71648;SDS011;70112;45.624;11.760;2023-05-17T07:31:40;4.00;;;2.60;;
71648;SDS011;70112;45.624;11.760;2023-05-17T07:34:06;4.50;;;2.70;;
71648;SDS011;70112;45.624;11.760;2023-05-17T07:36:32;5.30;;;2.20;;
71648;SDS011;70112;45.624;11.760;2023-05-17T07:38:57;5.60;;;2.30;;
71648;SDS011;70112;45.624;11.760;2023-05-17T07:41:23;6.50;;;2.50;;
71648;SDS011;70112;45.624;11.760;2023-05-17T07:43:49;6.30;;;2.50;;
71648;SDS011;70112;45.624;11.760;2023-05-17T07:46:15;4.30;;;2.30;;
71648;SDS011;70112;45.624;11.760;2023-05-17T07:48:41;3.80;;;2.10;;
71648;SDS011;70112;45.624;11.760;2023-05-17T07:51:29;5.40;;;2.00;;
71648;SDS011;70112;45.624;11.760;2023-05-17T07:53:56;5.00;;;2.10;;
71648;SDS011;70112;45.624;11.760;2023-05-17T07:56:21;3.90;;;2.10;;
71648;SDS011;70112;45.624;11.760;2023-05-17T07:58:50;6.60;;;2.20;;
71648;SDS011;70112;45.624;11.760;2023-05-17T08:01:21;3.00;;;1.90;;
71648;SDS011;70112;45.624;11.760;2023-05-17T08:03:48;3.30;;;2.10;;
71648;SDS011;70112;45.624;11.760;2023-05-17T08:06:21;4.30;;;2.00;;
71648;SDS011;70112;45.624;11.760;2023-05-17T08:11:13;3.30;;;1.90;;
71648;SDS011;70112;45.624;11.760;2023-05-17T08:13:42;2.40;;;2.20;;
71648;SDS011;70112;45.624;11.760;2023-05-17T08:16:08;5.00;;;2.60;;
71648;SDS011;70112;45.624;11.760;2023-05-17T08:18:35;2.30;;;2.10;;
71648;SDS011;70112;45.624;11.760;2023-05-17T08:21:01;3.80;;;2.30;;
71648;SDS011;70112;45.624;11.760;2023-05-17T08:23:27;12.40;;;3.00;;
71648;SDS011;70112;45.624;11.760;2023-05-17T08:25:53;9.50;;;2.40;;
71648;SDS011;70112;45.624;11.760;2023-05-17T08:28:24;8.00;;;3.00;;
71648;SDS011;70112;45.624;11.760;2023-05-17T08:30:49;6.70;;;3.00;;
71648;SDS011;70112;45.624;11.760;2023-05-17T08:33:15;7.70;;;2.80;;
71648;SDS011;70112;45.624;11.760;2023-05-17T08:35:41;4.70;;;2.20;;
71648;SDS011;70112;45.624;11.760;2023-05-17T08:38:07;3.70;;;2.40;;
71648;SDS011;70112;45.624;11.760;2023-05-17T08:40:33;5.30;;;2.80;;
71648;SDS011;70112;45.624;11.760;2023-05-17T08:42:59;7.50;;;2.90;;
71648;SDS011;70112;45.624;11.760;2023-05-17T08:45:26;4.90;;;2.50;;
71648;SDS011;70112;45.624;11.760;2023-05-17T08:47:53;8.20;;;1.90;;
71648;SDS011;70112;45.624;11.760;2023-05-17T08:50:19;3.20;;;1.50;;
71648;SDS011;70112;45.624;11.760;2023-05-17T08:52:46;3.60;;;1.50;;
71648;SDS011;70112;45.624;11.760;2023-05-17T08:55:12;5.20;;;1.40;;
71648;SDS011;70112;45.624;11.760;2023-05-17T08:57:40;3.70;;;0.90;;
71648;SDS011;70112;45.624;11.760;2023-05-17T09:00:07;2.20;;;0.70;;
71648;SDS011;70112;45.624;11.760;2023-05-17T09:02:37;0.80;;;0.70;;
71648;SDS011;70112;45.624;11.760;2023-05-17T09:05:04;2.40;;;0.70;;
71648;SDS011;70112;45.624;11.760;2023-05-17T09:07:31;0.60;;;0.60;;
71648;SDS011;70112;45.624;11.760;2023-05-17T09:09:57;2.20;;;0.70;;
71648;SDS011;70112;45.624;11.760;2023-05-17T09:12:23;1.80;;;0.80;;
71648;SDS011;70112;45.624;11.760;2023-05-17T09:14:49;2.50;;;1.00;;
71648;SDS011;70112;45.624;11.760;2023-05-17T09:17:19;0.80;;;0.60;;
71648;SDS011;70112;45.624;11.760;2023-05-17T09:19:47;1.10;;;0.70;;
71648;SDS011;70112;45.624;11.760;2023-05-17T09:22:13;2.10;;;1.00;;
71648;SDS011;70112;45.624;11.760;2023-05-17T09:24:48;1.20;;;0.70;;
71648;SDS011;70112;45.624;11.760;2023-05-17T09:27:16;1.50;;;0.80;;
71648;SDS011;70112;45.624;11.760;2023-05-17T09:29:46;1.60;;;1.00;;
71648;SDS011;70112;45.624;11.760;2023-05-17T09:32:14;1.30;;;1.00;;
71648;SDS011;70112;45.624;11.760;2023-05-17T09:34:42;1.20;;;1.10;;
71648;SDS011;70112;45.624;11.760;2023-05-17T09:37:16;5.60;;;1.30;;
71648;SDS011;70112;45.624;11.760;2023-05-17T09:42:11;3.70;;;1.30;;
71648;SDS011;70112;45.624;11.760;2023-05-17T09:44:48;4.30;;;1.30;;
71648;SDS011;70112;45.624;11.760;2023-05-17T09:47:28;1.70;;;1.00;;
71648;SDS011;70112;45.624;11.760;2023-05-17T09:49:55;2.60;;;0.90;;
71648;SDS011;70112;45.624;11.760;2023-05-17T09:52:25;0.90;;;0.80;;
71648;SDS011;70112;45.624;11.760;2023-05-17T09:54:59;1.40;;;0.80;;
71648;SDS011;70112;45.624;11.760;2023-05-17T09:57:26;2.30;;;0.70;;
71648;SDS011;70112;45.624;11.760;2023-05-17T09:59:56;5.10;;;1.80;;
71648;SDS011;70112;45.624;11.760;2023-05-17T10:02:32;2.90;;;1.00;;
71648;SDS011;70112;45.624;11.760;2023-05-17T10:05:00;5.10;;;1.10;;
71648;SDS011;70112;45.624;11.760;2023-05-17T10:07:30;3.40;;;1.10;;
71648;SDS011;70112;45.624;11.760;2023-05-17T10:09:56;3.40;;;1.00;;
71648;SDS011;70112;45.624;11.760;2023-05-17T10:12:25;3.00;;;1.00;;
71648;SDS011;70112;45.624;11.760;2023-05-17T10:14:55;1.50;;;0.90;;
71648;SDS011;70112;45.624;11.760;2023-05-17T10:17:21;1.00;;;0.80;;
71648;SDS011;70112;45.624;11.760;2023-05-17T10:19:51;2.00;;;0.90;;
71648;SDS011;70112;45.624;11.760;2023-05-17T10:22:20;0.70;;;0.70;;
71648;SDS011;70112;45.624;11.760;2023-05-17T10:24:47;0.90;;;0.70;;
71648;SDS011;70112;45.624;11.760;2023-05-17T10:27:14;1.70;;;0.70;;
71648;SDS011;70112;45.624;11.760;2023-05-17T10:29:40;6.80;;;0.80;;
71648;SDS011;70112;45.624;11.760;2023-05-17T10:32:07;2.10;;;0.80;;
71648;SDS011;70112;45.624;11.760;2023-05-17T10:34:38;2.20;;;0.80;;
71648;SDS011;70112;45.624;11.760;2023-05-17T10:37:04;1.00;;;0.70;;
71648;SDS011;70112;45.624;11.760;2023-05-17T10:39:32;2.40;;;0.90;;
71648;SDS011;70112;45.624;11.760;2023-05-17T10:42:01;0.70;;;0.70;;
71648;SDS011;70112;45.624;11.760;2023-05-17T10:44:30;0.80;;;0.70;;
71648;SDS011;70112;45.624;11.760;2023-05-17T10:46:58;2.40;;;0.80;;
71648;SDS011;70112;45.624;11.760;2023-05-17T10:49:28;3.30;;;0.70;;
71648;SDS011;70112;45.624;11.760;2023-05-17T10:52:19;6.50;;;1.00;;
71648;SDS011;70112;45.624;11.760;2023-05-17T10:54:48;2.30;;;0.70;;
71648;SDS011;70112;45.624;11.760;2023-05-17T10:57:33;0.70;;;0.70;;
71648;SDS011;70112;45.624;11.760;2023-05-17T11:00:01;2.40;;;0.80;;
71648;SDS011;70112;45.624;11.760;2023-05-17T11:02:31;1.60;;;0.70;;
71648;SDS011;70112;45.624;11.760;2023-05-17T11:04:57;0.80;;;0.70;;
71648;SDS011;70112;45.624;11.760;2023-05-17T11:07:28;1.30;;;0.80;;
71648;SDS011;70112;45.624;11.760;2023-05-17T11:12:31;1.10;;;0.80;;
71648;SDS011;70112;45.624;11.760;2023-05-17T11:20:30;3.50;;;0.80;;
71648;SDS011;70112;45.624;11.760;2023-05-17T11:23:05;2.50;;;0.90;;
71648;SDS011;70112;45.624;11.760;2023-05-17T11:25:34;2.80;;;0.80;;
71648;SDS011;70112;45.624;11.760;2023-05-17T11:28:06;1.10;;;0.70;;
71648;SDS011;70112;45.624;11.760;2023-05-17T11:30:45;2.30;;;0.70;;
71648;SDS011;70112;45.624;11.760;2023-05-17T11:33:18;0.80;;;0.70;;
71648;SDS011;70112;45.624;11.760;2023-05-17T11:35:47;1.10;;;0.70;;
71648;SDS011;70112;45.624;11.760;2023-05-17T11:38:20;1.70;;;0.60;;
71648;SDS011;70112;45.624;11.760;2023-05-17T11:40:51;1.50;;;0.90;;
71648;SDS011;70112;45.624;11.760;2023-05-17T11:43:25;2.90;;;0.80;;
71648;SDS011;70112;45.624;11.760;2023-05-17T11:45:56;0.90;;;0.70;;
71648;SDS011;70112;45.624;11.760;2023-05-17T11:48:25;1.00;;;0.60;;
71648;SDS011;70112;45.624;11.760;2023-05-17T11:50:53;0.60;;;0.50;;
71648;SDS011;70112;45.624;11.760;2023-05-17T11:53:21;0.80;;;0.60;;
71648;SDS011;70112;45.624;11.760;2023-05-17T11:55:48;9.30;;;0.70;;
71648;SDS011;70112;45.624;11.760;2023-05-17T11:58:19;1.60;;;0.70;;
71648;SDS011;70112;45.624;11.760;2023-05-17T12:00:55;2.00;;;0.80;;
71648;SDS011;70112;45.624;11.760;2023-05-17T12:03:31;1.20;;;0.70;;
71648;SDS011;70112;45.624;11.760;2023-05-17T12:06:02;3.80;;;0.90;;
71648;SDS011;70112;45.624;11.760;2023-05-17T12:08:31;2.10;;;0.90;;
71648;SDS011;70112;45.624;11.760;2023-05-17T12:11:03;1.40;;;0.70;;
71648;SDS011;70112;45.624;11.760;2023-05-17T12:13:31;1.20;;;0.70;;
71648;SDS011;70112;45.624;11.760;2023-05-17T12:16:03;8.00;;;1.00;;
71648;SDS011;70112;45.624;11.760;2023-05-17T12:18:34;1.60;;;0.70;;
71648;SDS011;70112;45.624;11.760;2023-05-17T12:21:03;1.10;;;0.70;;
71648;SDS011;70112;45.624;11.760;2023-05-17T12:23:37;1.00;;;0.80;;
71648;SDS011;70112;45.624;11.760;2023-05-17T12:26:41;6.20;;;1.40;;
71648;SDS011;70112;45.624;11.760;2023-05-17T12:29:08;2.70;;;1.20;;
71648;SDS011;70112;45.624;11.760;2023-05-17T12:31:37;6.90;;;1.50;;
71648;SDS011;70112;45.624;11.760;2023-05-17T12:34:05;5.20;;;1.20;;
71648;SDS011;70112;45.624;11.760;2023-05-17T12:36:31;7.30;;;1.20;;
71648;SDS011;70112;45.624;11.760;2023-05-17T12:38:58;2.10;;;1.00;;
71648;SDS011;70112;45.624;11.760;2023-05-17T12:41:24;1.50;;;1.00;;
71648;SDS011;70112;45.624;11.760;2023-05-17T12:43:50;14.00;;;1.70;;
71648;SDS011;70112;45.624;11.760;2023-05-17T12:46:18;2.50;;;0.90;;
71648;SDS011;70112;45.624;11.760;2023-05-17T12:48:48;8.00;;;2.00;;
71648;SDS011;70112;45.624;11.760;2023-05-17T12:51:17;3.50;;;1.00;;
71648;SDS011;70112;45.624;11.760;2023-05-17T12:53:54;3.40;;;1.80;;
71648;SDS011;70112;45.624;11.760;2023-05-17T12:56:26;7.90;;;1.40;;
71648;SDS011;70112;45.624;11.760;2023-05-17T13:01:47;6.00;;;1.10;;
71648;SDS011;70112;45.624;11.760;2023-05-17T13:04:15;3.30;;;1.00;;
71648;SDS011;70112;45.624;11.760;2023-05-17T13:06:48;2.60;;;1.10;;
71648;SDS011;70112;45.624;11.760;2023-05-17T13:09:16;10.30;;;1.80;;
71648;SDS011;70112;45.624;11.760;2023-05-17T13:11:54;3.10;;;1.20;;
71648;SDS011;70112;45.624;11.760;2023-05-17T13:17:11;3.00;;;0.80;;
71648;SDS011;70112;45.624;11.760;2023-05-17T13:19:45;1.60;;;0.60;;
71648;SDS011;70112;45.624;11.760;2023-05-17T13:22:10;3.70;;;1.40;;
71648;SDS011;70112;45.624;11.760;2023-05-17T13:24:37;4.90;;;1.60;;
71648;SDS011;70112;45.624;11.760;2023-05-17T13:27:05;3.50;;;0.90;;
71648;SDS011;70112;45.624;11.760;2023-05-17T13:29:32;0.50;;;0.50;;
71648;SDS011;70112;45.624;11.760;2023-05-17T13:31:59;2.40;;;0.90;;
71648;SDS011;70112;45.624;11.760;2023-05-17T13:34:25;2.50;;;1.00;;
71648;SDS011;70112;45.624;11.760;2023-05-17T13:36:51;4.60;;;0.70;;
71648;SDS011;70112;45.624;11.760;2023-05-17T13:39:16;4.90;;;0.80;;
71648;SDS011;70112;45.624;11.760;2023-05-17T13:41:42;7.00;;;1.00;;
71648;SDS011;70112;45.624;11.760;2023-05-17T13:44:09;7.60;;;0.80;;
71648;SDS011;70112;45.624;11.760;2023-05-17T13:46:34;4.70;;;0.90;;
71648;SDS011;70112;45.624;11.760;2023-05-17T13:49:00;12.20;;;1.00;;
71648;SDS011;70112;45.624;11.760;2023-05-17T13:51:29;7.30;;;1.00;;
71648;SDS011;70112;45.624;11.760;2023-05-17T13:53:55;2.60;;;0.90;;
71648;SDS011;70112;45.624;11.760;2023-05-17T13:56:21;3.10;;;0.90;;
71648;SDS011;70112;45.624;11.760;2023-05-17T13:58:47;2.50;;;0.90;;
71648;SDS011;70112;45.624;11.760;2023-05-17T14:01:14;5.60;;;1.10;;
71648;SDS011;70112;45.624;11.760;2023-05-17T14:03:40;3.40;;;0.90;;
71648;SDS011;70112;45.624;11.760;2023-05-17T14:06:06;6.50;;;0.80;;
71648;SDS011;70112;45.624;11.760;2023-05-17T14:08:32;2.20;;;1.00;;
71648;SDS011;70112;45.624;11.760;2023-05-17T14:10:58;1.20;;;0.70;;
71648;SDS011;70112;45.624;11.760;2023-05-17T14:13:25;0.60;;;0.50;;
71648;SDS011;70112;45.624;11.760;2023-05-17T14:15:51;3.30;;;0.60;;
71648;SDS011;70112;45.624;11.760;2023-05-17T14:18:17;91.00;;;4.40;;
71648;SDS011;70112;45.624;11.760;2023-05-17T14:20:42;15.70;;;1.70;;
71648;SDS011;70112;45.624;11.760;2023-05-17T14:23:08;27.60;;;2.20;;
71648;SDS011;70112;45.624;11.760;2023-05-17T14:25:33;47.50;;;3.20;;
71648;SDS011;70112;45.624;11.760;2023-05-17T14:27:59;4.60;;;1.20;;
71648;SDS011;70112;45.624;11.760;2023-05-17T14:30:25;2.10;;;0.60;;
71648;SDS011;70112;45.624;11.760;2023-05-17T14:32:50;9.30;;;0.80;;
71648;SDS011;70112;45.624;11.760;2023-05-17T14:35:16;10.40;;;1.90;;
71648;SDS011;70112;45.624;11.760;2023-05-17T14:37:42;13.10;;;2.20;;
71648;SDS011;70112;45.624;11.760;2023-05-17T14:40:08;15.20;;;1.50;;
71648;SDS011;70112;45.624;11.760;2023-05-17T14:42:34;6.90;;;0.90;;
71648;SDS011;70112;45.624;11.760;2023-05-17T14:45:00;7.40;;;0.60;;
71648;SDS011;70112;45.624;11.760;2023-05-17T14:47:26;2.30;;;0.70;;
71648;SDS011;70112;45.624;11.760;2023-05-17T14:49:51;34.50;;;1.90;;
71648;SDS011;70112;45.624;11.760;2023-05-17T14:52:17;52.50;;;3.80;;
71648;SDS011;70112;45.624;11.760;2023-05-17T14:54:43;11.50;;;1.50;;
71648;SDS011;70112;45.624;11.760;2023-05-17T14:57:08;35.30;;;3.20;;
71648;SDS011;70112;45.624;11.760;2023-05-17T14:59:37;10.50;;;1.10;;
71648;SDS011;70112;45.624;11.760;2023-05-17T15:02:03;13.10;;;0.90;;
71648;SDS011;70112;45.624;11.760;2023-05-17T15:04:29;1.50;;;0.70;;
71648;SDS011;70112;45.624;11.760;2023-05-17T15:06:56;3.10;;;1.00;;
71648;SDS011;70112;45.624;11.760;2023-05-17T15:09:23;13.40;;;1.10;;
71648;SDS011;70112;45.624;11.760;2023-05-17T15:11:49;3.50;;;0.80;;
71648;SDS011;70112;45.624;11.760;2023-05-17T15:14:17;16.20;;;1.30;;
71648;SDS011;70112;45.624;11.760;2023-05-17T15:16:47;8.60;;;1.00;;
71648;SDS011;70112;45.624;11.760;2023-05-17T15:19:13;1.70;;;0.50;;
71648;SDS011;70112;45.624;11.760;2023-05-17T15:21:40;1.80;;;0.70;;